Time;durP1;ratioP1;P1;durP2;ratioP2;P2;SDS_P1;SDS_P2;PMS_P1;PMS_P2;Temp;Humidity;BMP_temperature;BMP_pressure;BME280_temperature;BME280_humidity;BME280_pressure;Samples;Min_cycle;Max_cycle;Signal;HPM_P1;HPM_P2
2021/01/15 00:00:48;;;;;;;10.73;8.00;;;;;;;;;;5051358;28;20776;-74
2021/01/15 00:03:14;;;;;;;9.77;7.43;;;;;;;;;;5047531;28;20447;-74
2021/01/15 00:05:40;;;;;;;8.43;6.93;;;;;;;;;;5044821;28;20450;-73
2021/01/15 00:08:06;;;;;;;8.03;7.23;;;;;;;;;;5051366;28;20438;-74
2021/01/15 00:10:32;;;;;;;10.07;7.78;;;;;;;;;;5033203;28;20459;-74
2021/01/15 00:12:58;;;;;;;14.88;7.68;;;;;;;;;;5051290;28;20334;-74
2021/01/15 00:15:24;;;;;;;12.95;9.05;;;;;;;;;;5050839;28;20267;-74
2021/01/15 00:17:50;;;;;;;9.43;6.60;;;;;;;;;;5050990;28;20302;-74
2021/01/15 00:20:16;;;;;;;10.43;7.03;;;;;;;;;;5051305;28;20963;-74
2021/01/15 00:22:43;;;;;;;10.30;8.00;;;;;;;;;;5050840;28;20442;-75
2021/01/15 00:25:10;;;;;;;14.27;8.52;;;;;;;;;;5051107;28;20451;-74
2021/01/15 00:27:36;;;;;;;9.18;7.10;;;;;;;;;;5050912;28;20183;-74
2021/01/15 00:30:03;;;;;;;9.18;6.95;;;;;;;;;;5050098;28;20278;-74
2021/01/15 00:32:29;;;;;;;12.27;8.23;;;;;;;;;;5033193;28;20184;-74
2021/01/15 00:34:55;;;;;;;8.77;6.13;;;;;;;;;;5051462;28;20190;-73
2021/01/15 00:37:21;;;;;;;13.40;8.27;;;;;;;;;;5050723;28;20530;-74
2021/01/15 00:39:47;;;;;;;12.03;8.93;;;;;;;;;;5049986;28;20904;-74
2021/01/15 00:42:13;;;;;;;13.40;8.03;;;;;;;;;;5051214;28;20515;-73
2021/01/15 00:44:39;;;;;;;7.30;5.47;;;;;;;;;;5049121;28;20457;-74
2021/01/15 00:47:05;;;;;;;16.20;7.87;;;;;;;;;;5050801;28;20504;-73
2021/01/15 00:49:30;;;;;;;7.13;4.60;;;;;;;;;;5051409;28;20480;-74
2021/01/15 00:51:56;;;;;;;15.23;7.40;;;;;;;;;;5053284;28;20517;-73
2021/01/15 00:54:22;;;;;;;10.50;7.57;;;;;;;;;;5052646;28;20765;-74
2021/01/15 00:56:48;;;;;;;10.68;6.97;;;;;;;;;;5052085;28;20526;-74
2021/01/15 00:59:14;;;;;;;11.80;8.00;;;;;;;;;;5052516;28;20752;-73
2021/01/15 01:01:40;;;;;;;8.80;7.07;;;;;;;;;;5052893;28;20449;-74
2021/01/15 01:04:06;;;;;;;9.40;6.70;;;;;;;;;;5052754;28;20514;-73
2021/01/15 01:06:32;;;;;;;11.48;5.93;;;;;;;;;;5052579;28;20417;-74
2021/01/15 01:09:02;;;;;;;6.38;5.55;;;;;;;;;;5052548;28;20177;-74
2021/01/15 01:14:32;;;;;;;9.65;6.28;;;;;;;;;;5052631;28;20473;-74
2021/01/15 01:16:58;;;;;;;8.80;6.13;;;;;;;;;;5052511;28;20170;-74
2021/01/15 01:19:24;;;;;;;11.55;6.30;;;;;;;;;;5034292;28;20215;-74
2021/01/15 01:21:49;;;;;;;9.07;5.90;;;;;;;;;;5052221;28;20641;-74
2021/01/15 01:24:15;;;;;;;8.53;5.97;;;;;;;;;;5052281;28;20423;-73
2021/01/15 01:29:45;;;;;;;8.20;5.90;;;;;;;;;;5052434;28;20457;-75
2021/01/15 01:32:11;;;;;;;6.33;4.83;;;;;;;;;;5052280;28;20176;-73
2021/01/15 01:34:37;;;;;;;6.93;5.63;;;;;;;;;;5052492;28;20410;-74
2021/01/15 01:37:03;;;;;;;5.50;5.03;;;;;;;;;;5052116;28;20487;-74
2021/01/15 01:39:29;;;;;;;6.47;4.63;;;;;;;;;;5051981;28;20513;-74
2021/01/15 01:44:58;;;;;;;5.30;3.28;;;;;;;;;;5052195;28;20413;-73
2021/01/15 01:47:24;;;;;;;4.43;4.03;;;;;;;;;;5051965;28;20174;-73
2021/01/15 01:49:50;;;;;;;4.15;3.75;;;;;;;;;;5051802;28;20422;-73
2021/01/15 01:52:17;;;;;;;6.03;4.05;;;;;;;;;;5051916;28;20182;-73
2021/01/15 01:54:43;;;;;;;10.00;4.25;;;;;;;;;;5051856;28;20516;-73
2021/01/15 02:00:13;;;;;;;4.25;3.85;;;;;;;;;;5051861;28;20232;-73
2021/01/15 02:02:39;;;;;;;4.90;4.13;;;;;;;;;;5051489;28;20167;-74
2021/01/15 02:05:05;;;;;;;4.30;3.50;;;;;;;;;;5051543;28;20180;-75
2021/01/15 02:07:32;;;;;;;4.00;3.05;;;;;;;;;;5051824;28;20224;-74
2021/01/15 02:10:01;;;;;;;6.00;3.97;;;;;;;;;;5051641;28;20236;-73
2021/01/15 02:12:40;;;;;;;3.25;2.95;;;;;;;;;;5051673;28;20325;-73
2021/01/15 02:15:11;;;;;;;6.85;4.43;;;;;;;;;;5051568;28;20210;-74
2021/01/15 02:17:41;;;;;;;4.30;3.53;;;;;;;;;;5051592;28;20276;-74
2021/01/15 02:20:07;;;;;;;6.03;4.25;;;;;;;;;;5051817;28;20169;-74
2021/01/15 02:22:52;;;;;;;4.07;3.67;;;;;;;;;;5051586;28;20171;-74
2021/01/15 02:25:21;;;;;;;5.25;2.90;;;;;;;;;;5051378;28;20325;-74
2021/01/15 02:28:13;;;;;;;5.22;4.72;;;;;;;;;;5051278;28;20207;-74
2021/01/15 02:30:44;;;;;;;4.13;3.17;;;;;;;;;;5051317;28;20173;-74
2021/01/15 02:33:19;;;;;;;3.25;2.95;;;;;;;;;;5051457;28;20619;-74
2021/01/15 02:35:45;;;;;;;4.55;3.33;;;;;;;;;;5055397;28;20176;-74
2021/01/15 02:38:11;;;;;;;3.17;2.88;;;;;;;;;;5055264;28;20222;-73
2021/01/15 02:40:49;;;;;;;4.50;4.07;;;;;;;;;;5055299;28;20180;-74
2021/01/15 02:43:17;;;;;;;3.75;3.10;;;;;;;;;;5055269;28;20395;-73
2021/01/15 02:45:43;;;;;;;3.78;3.38;;;;;;;;;;5055374;28;20567;-73
2021/01/15 02:48:10;;;;;;;3.30;3.00;;;;;;;;;;5054923;28;20168;-74
2021/01/15 02:50:37;;;;;;;3.28;2.95;;;;;;;;;;5055019;28;20168;-74
2021/01/15 02:53:03;;;;;;;3.50;3.20;;;;;;;;;;5055162;28;20508;-74
2021/01/15 02:55:29;;;;;;;7.63;3.70;;;;;;;;;;5055245;28;20167;-74
2021/01/15 02:57:55;;;;;;;6.28;2.85;;;;;;;;;;5054974;28;20408;-73
2021/01/15 03:00:22;;;;;;;3.97;2.80;;;;;;;;;;5054788;28;20905;-74
2021/01/15 03:02:48;;;;;;;3.35;2.40;;;;;;;;;;5054722;28;20611;-74
2021/01/15 03:05:21;;;;;;;4.10;2.50;;;;;;;;;;5055025;28;20187;-73
2021/01/15 03:07:49;;;;;;;2.70;2.50;;;;;;;;;;5054777;28;20414;-73
2021/01/15 03:10:16;;;;;;;3.35;2.17;;;;;;;;;;5054220;28;20164;-73
2021/01/15 03:15:47;;;;;;;4.53;2.40;;;;;;;;;;5054741;28;20652;-74
2021/01/15 03:18:14;;;;;;;4.38;3.00;;;;;;;;;;5054374;28;20535;-74
2021/01/15 03:20:40;;;;;;;2.88;2.50;;;;;;;;;;5054378;28;20172;-74
2021/01/15 03:23:06;;;;;;;2.55;2.03;;;;;;;;;;5054387;28;20185;-74
2021/01/15 03:25:32;;;;;;;3.90;2.35;;;;;;;;;;5054342;28;20241;-74
2021/01/15 03:31:02;;;;;;;4.25;2.22;;;;;;;;;;5054261;28;20762;-74
2021/01/15 03:33:28;;;;;;;3.53;2.20;;;;;;;;;;5054180;28;20172;-74
2021/01/15 03:35:54;;;;;;;2.73;2.47;;;;;;;;;;5054138;28;20421;-74
2021/01/15 03:38:20;;;;;;;3.63;2.80;;;;;;;;;;5054101;28;20465;-74
2021/01/15 03:40:46;;;;;;;3.35;3.05;;;;;;;;;;5054248;28;20421;-74
2021/01/15 03:46:19;;;;;;;3.08;2.78;;;;;;;;;;5054093;28;20213;-74
2021/01/15 03:48:48;;;;;;;5.95;2.75;;;;;;;;;;5036461;28;20222;-72
2021/01/15 03:51:14;;;;;;;4.30;2.60;;;;;;;;;;5054122;28;20181;-73
2021/01/15 03:53:44;;;;;;;3.83;2.65;;;;;;;;;;5054050;28;20674;-73
2021/01/15 03:56:10;;;;;;;3.78;2.80;;;;;;;;;;5054054;28;20564;-74
2021/01/15 03:58:37;;;;;;;4.07;3.67;;;;;;;;;;5053694;28;20312;-73
2021/01/15 04:01:03;;;;;;;3.67;3.00;;;;;;;;;;5035600;28;20187;-73
2021/01/15 04:03:29;;;;;;;4.10;3.00;;;;;;;;;;5054061;28;20221;-73
2021/01/15 04:05:55;;;;;;;5.20;3.10;;;;;;;;;;5053960;28;20562;-74
2021/01/15 04:08:21;;;;;;;3.58;2.70;;;;;;;;;;5053662;28;20414;-74
2021/01/15 04:10:47;;;;;;;6.63;2.88;;;;;;;;;;5053628;28;20167;-74
2021/01/15 04:16:17;;;;;;;2.95;2.50;;;;;;;;;;5053711;28;20501;-74
2021/01/15 04:18:43;;;;;;;3.70;3.05;;;;;;;;;;5053780;28;20226;-74
2021/01/15 04:21:10;;;;;;;3.47;2.60;;;;;;;;;;5053396;28;20179;-75
2021/01/15 04:23:36;;;;;;;2.25;2.00;;;;;;;;;;5053347;28;20297;-74
2021/01/15 04:26:02;;;;;;;3.40;2.30;;;;;;;;;;5053400;28;20161;-73
2021/01/15 04:31:31;;;;;;;2.70;2.40;;;;;;;;;;5053705;28;20639;-73
2021/01/15 04:33:57;;;;;;;2.43;2.17;;;;;;;;;;5053361;28;20246;-74
2021/01/15 04:36:25;;;;;;;4.87;3.10;;;;;;;;;;5053682;28;20931;-74
2021/01/15 04:38:51;;;;;;;2.17;2.00;;;;;;;;;;5053109;28;20474;-74
2021/01/15 04:41:22;;;;;;;3.43;2.20;;;;;;;;;;5053222;28;20179;-74
2021/01/15 04:46:51;;;;;;;3.40;2.78;;;;;;;;;;5053512;28;20548;-73
2021/01/15 04:49:21;;;;;;;6.90;2.50;;;;;;;;;;5052993;28;20166;-75
2021/01/15 04:51:50;;;;;;;2.83;2.40;;;;;;;;;;5052756;28;20261;-74
2021/01/15 04:54:18;;;;;;;2.47;2.28;;;;;;;;;;5053031;28;20174;-74
2021/01/15 04:56:54;;;;;;;3.08;2.50;;;;;;;;;;5052396;28;20230;-74
2021/01/15 04:59:20;;;;;;;4.78;2.58;;;;;;;;;;5052674;28;20256;-73
2021/01/15 05:01:47;;;;;;;3.40;2.60;;;;;;;;;;5053023;28;20182;-74
2021/01/15 05:04:14;;;;;;;3.20;2.90;;;;;;;;;;5052069;28;20180;-73
2021/01/15 05:06:50;;;;;;;2.72;2.47;;;;;;;;;;5052829;28;20258;-72
2021/01/15 05:09:17;;;;;;;8.02;5.57;;;;;;;;;;5052558;28;20520;-73
2021/01/15 05:11:44;;;;;;;7.00;3.13;;;;;;;;;;5052837;28;20170;-73
2021/01/15 05:17:14;;;;;;;4.53;3.00;;;;;;;;;;5053250;28;20640;-74
2021/01/15 05:19:41;;;;;;;3.75;2.92;;;;;;;;;;5052831;28;20211;-74
2021/01/15 05:22:10;;;;;;;3.15;2.85;;;;;;;;;;5052700;28;20250;-74
2021/01/15 05:24:36;;;;;;;9.70;3.35;;;;;;;;;;5052495;28;20207;-74
2021/01/15 05:33:00;;;;;;;2.80;2.60;;;;;;;;;;5052490;28;20518;-74
2021/01/15 05:35:47;;;;;;;3.67;3.15;;;;;;;;;;5052582;28;20175;-74
2021/01/15 05:38:16;;;;;;;3.38;3.08;;;;;;;;;;5052100;28;20318;-74
2021/01/15 05:40:52;;;;;;;4.78;3.95;;;;;;;;;;5052352;28;20199;-74
2021/01/15 05:43:22;;;;;;;6.63;3.67;;;;;;;;;;5052275;28;20472;-74
2021/01/15 05:46:04;;;;;;;5.85;3.08;;;;;;;;;;5052377;28;20171;-73
2021/01/15 05:48:30;;;;;;;5.82;3.58;;;;;;;;;;5052009;28;20184;-74
2021/01/15 05:50:56;;;;;;;4.80;3.57;;;;;;;;;;5051989;28;20172;-74
2021/01/15 05:53:22;;;;;;;5.00;3.47;;;;;;;;;;5051718;28;20508;-75
2021/01/15 05:55:58;;;;;;;8.13;3.78;;;;;;;;;;5052120;28;20209;-75
2021/01/15 05:58:24;;;;;;;5.53;3.20;;;;;;;;;;5051812;28;20201;-73
2021/01/15 06:00:51;;;;;;;4.60;3.53;;;;;;;;;;5051938;28;20198;-74
2021/01/15 06:03:18;;;;;;;4.13;3.47;;;;;;;;;;5052194;28;20473;-73
2021/01/15 06:05:48;;;;;;;5.65;3.45;;;;;;;;;;5051860;28;20689;-74
2021/01/15 06:08:14;;;;;;;3.85;3.55;;;;;;;;;;5051712;28;20175;-74
2021/01/15 06:10:41;;;;;;;5.05;3.67;;;;;;;;;;5051292;28;20214;-74
2021/01/15 06:13:07;;;;;;;4.07;3.70;;;;;;;;;;5051061;28;20536;-74
2021/01/15 06:15:49;;;;;;;4.03;3.60;;;;;;;;;;5050245;28;20187;-74
2021/01/15 06:18:17;;;;;;;5.00;3.60;;;;;;;;;;5049736;28;20202;-75
2021/01/15 06:20:44;;;;;;;4.43;4.00;;;;;;;;;;5050475;28;20190;-74
2021/01/15 06:23:13;;;;;;;5.28;3.83;;;;;;;;;;5050607;28;20174;-74
2021/01/15 06:26:00;;;;;;;9.30;4.22;;;;;;;;;;5050531;28;20178;-75
2021/01/15 06:28:33;;;;;;;6.63;4.65;;;;;;;;;;5050420;28;20187;-75
2021/01/15 06:31:01;;;;;;;5.38;4.28;;;;;;;;;;5050313;28;20210;-73
2021/01/15 06:33:27;;;;;;;9.77;4.20;;;;;;;;;;5050476;28;20247;-74
2021/01/15 06:35:53;;;;;;;6.10;4.70;;;;;;;;;;5050912;28;20180;-73
2021/01/15 06:38:21;;;;;;;6.75;3.70;;;;;;;;;;5051065;28;20210;-72
2021/01/15 06:40:48;;;;;;;4.70;3.80;;;;;;;;;;5050826;28;20668;-74
2021/01/15 06:43:20;;;;;;;5.28;4.10;;;;;;;;;;5050749;28;20170;-73
2021/01/15 06:45:47;;;;;;;4.95;4.45;;;;;;;;;;5051231;28;20527;-73
2021/01/15 06:48:17;;;;;;;6.47;4.10;;;;;;;;;;5050802;28;20185;-74
2021/01/15 06:50:47;;;;;;;6.35;4.05;;;;;;;;;;5051302;28;20187;-74
2021/01/15 06:53:15;;;;;;;11.80;4.57;;;;;;;;;;5050876;28;20169;-76
2021/01/15 06:55:43;;;;;;;4.45;3.40;;;;;;;;;;5050771;28;20163;-75
2021/01/15 07:04:09;;;;;;;4.70;4.15;;;;;;;;;;5050992;28;20173;-75
2021/01/15 07:06:36;;;;;;;6.75;3.80;;;;;;;;;;5051066;28;20172;-76
2021/01/15 07:09:04;;;;;;;7.32;4.45;;;;;;;;;;5051003;28;20515;-73
2021/01/15 07:11:31;;;;;;;4.20;3.78;;;;;;;;;;5051162;28;20228;-74
2021/01/15 07:14:01;;;;;;;7.13;4.82;;;;;;;;;;5051787;28;20201;-75
2021/01/15 07:16:27;;;;;;;5.70;4.15;;;;;;;;;;5051626;28;20169;-75
2021/01/15 07:19:00;;;;;;;7.07;4.60;;;;;;;;;;5051551;28;20202;-77
2021/01/15 07:21:30;;;;;;;7.25;4.95;;;;;;;;;;5055027;28;20438;-75
2021/01/15 07:24:03;;;;;;;7.10;5.00;;;;;;;;;;5055139;28;20166;-77
2021/01/15 07:26:39;;;;;;;7.07;4.78;;;;;;;;;;5055123;28;20222;-77
2021/01/15 07:29:05;;;;;;;7.80;4.57;;;;;;;;;;5054459;28;20254;-73
2021/01/15 07:31:31;;;;;;;6.07;5.05;;;;;;;;;;5055083;28;20170;-75
2021/01/15 07:33:59;;;;;;;8.50;5.63;;;;;;;;;;5055174;28;20190;-73
2021/01/15 07:36:32;;;;;;;10.93;5.28;;;;;;;;;;5055348;28;20171;-73
2021/01/15 07:39:09;;;;;;;7.97;5.28;;;;;;;;;;5055007;28;20207;-74
2021/01/15 07:41:38;;;;;;;12.35;5.88;;;;;;;;;;5055422;28;20765;-74
2021/01/15 07:44:23;;;;;;;8.95;6.32;;;;;;;;;;5054650;28;20311;-74
2021/01/15 07:46:53;;;;;;;7.50;6.03;;;;;;;;;;5054944;28;20490;-74
2021/01/15 07:49:19;;;;;;;9.48;5.65;;;;;;;;;;5054543;28;20171;-74
2021/01/15 07:52:04;;;;;;;5.95;5.00;;;;;;;;;;5054510;28;20196;-75
2021/01/15 07:54:51;;;;;;;9.93;6.57;;;;;;;;;;5054551;28;20171;-73
2021/01/15 07:57:18;;;;;;;8.10;6.15;;;;;;;;;;5055157;28;20534;-75
2021/01/15 07:59:44;;;;;;;12.05;6.95;;;;;;;;;;5053806;28;20238;-74
2021/01/15 08:02:10;;;;;;;6.75;5.53;;;;;;;;;;5054557;28;20163;-74
2021/01/15 08:04:36;;;;;;;7.43;5.38;;;;;;;;;;5054906;28;20168;-74
2021/01/15 08:07:21;;;;;;;8.53;6.80;;;;;;;;;;5054784;28;20173;-75
2021/01/15 08:09:47;;;;;;;6.15;5.32;;;;;;;;;;5054538;28;20501;-75
2021/01/15 08:12:13;;;;;;;9.35;5.70;;;;;;;;;;5055070;28;20206;-75
2021/01/15 08:14:39;;;;;;;6.37;5.47;;;;;;;;;;5054592;28;20634;-75
2021/01/15 08:17:10;;;;;;;11.10;6.18;;;;;;;;;;5054714;28;20414;-76
2021/01/15 08:19:37;;;;;;;7.53;6.05;;;;;;;;;;5054650;28;20219;-76
2021/01/15 08:22:06;;;;;;;10.55;5.90;;;;;;;;;;5054275;28;20160;-79
2021/01/15 08:24:32;;;;;;;8.57;6.30;;;;;;;;;;5054234;28;20174;-77
2021/01/15 08:26:58;;;;;;;7.05;6.05;;;;;;;;;;5054378;28;20171;-78
2021/01/15 08:29:26;;;;;;;11.98;6.63;;;;;;;;;;5053652;28;20261;-78
2021/01/15 08:31:58;;;;;;;7.80;5.88;;;;;;;;;;5053297;28;20258;-78
2021/01/15 08:34:30;;;;;;;9.68;5.63;;;;;;;;;;5054180;28;20174;-78
2021/01/15 08:36:58;;;;;;;7.07;5.55;;;;;;;;;;5054262;28;20171;-78
2021/01/15 08:39:24;;;;;;;9.90;5.70;;;;;;;;;;5054213;28;20225;-76
2021/01/15 08:41:54;;;;;;;8.27;6.40;;;;;;;;;;5052503;28;20629;-76
2021/01/15 08:44:23;;;;;;;6.25;5.07;;;;;;;;;;5052500;28;20509;-76
2021/01/15 08:49:53;;;;;;;8.88;6.55;;;;;;;;;;5052361;28;20225;-79
2021/01/15 08:52:23;;;;;;;10.20;6.80;;;;;;;;;;5052577;28;20207;-77
2021/01/15 08:54:50;;;;;;;8.13;5.35;;;;;;;;;;5052493;28;20200;-77
2021/01/15 08:57:19;;;;;;;9.00;5.88;;;;;;;;;;5052604;28;20259;-77
2021/01/15 08:59:45;;;;;;;8.05;6.80;;;;;;;;;;5033646;28;20247;-78
2021/01/15 09:02:12;;;;;;;10.23;6.70;;;;;;;;;;5052450;28;20611;-77
2021/01/15 09:04:38;;;;;;;6.78;6.13;;;;;;;;;;5052245;28;20473;-77
2021/01/15 09:07:07;;;;;;;11.55;6.35;;;;;;;;;;5052572;28;20175;-77
2021/01/15 09:09:34;;;;;;;7.07;5.55;;;;;;;;;;5052345;28;20164;-77
2021/01/15 09:12:05;;;;;;;7.97;5.50;;;;;;;;;;5052510;28;20169;-77
2021/01/15 09:14:35;;;;;;;6.70;5.97;;;;;;;;;;5052183;28;20178;-77
2021/01/15 09:20:05;;;;;;;15.30;5.97;;;;;;;;;;5052757;28;20708;-77
2021/01/15 09:22:31;;;;;;;7.20;5.90;;;;;;;;;;5051961;28;20583;-77
2021/01/15 09:24:57;;;;;;;10.40;6.87;;;;;;;;;;5052292;28;20175;-76
2021/01/15 09:27:23;;;;;;;7.80;6.13;;;;;;;;;;5052049;28;20564;-76
2021/01/15 09:29:49;;;;;;;10.95;6.72;;;;;;;;;;5051182;28;20172;-76
2021/01/15 09:35:19;;;;;;;9.27;6.32;;;;;;;;;;5051522;28;20777;-75
2021/01/15 09:37:46;;;;;;;9.57;7.50;;;;;;;;;;5051650;28;20176;-77
2021/01/15 09:40:12;;;;;;;8.90;7.57;;;;;;;;;;5051827;28;20220;-76
2021/01/15 09:42:38;;;;;;;9.32;7.43;;;;;;;;;;5051199;28;20237;-75
2021/01/15 09:51:11;;;;;;;7.50;5.50;;;;;;;;;;5052072;28;20569;-78
2021/01/15 09:53:37;;;;;;;7.37;6.07;;;;;;;;;;5051535;28;20167;-78
2021/01/15 09:56:03;;;;;;;7.20;6.00;;;;;;;;;;5051734;28;20422;-78
2021/01/15 09:58:29;;;;;;;7.10;6.28;;;;;;;;;;5051090;28;20469;-78
2021/01/15 10:00:55;;;;;;;8.80;6.10;;;;;;;;;;5051399;28;20639;-78
2021/01/15 10:03:21;;;;;;;10.97;6.40;;;;;;;;;;5051469;28;20424;-77
2021/01/15 10:05:47;;;;;;;13.03;7.47;;;;;;;;;;5051723;28;20403;-77
2021/01/15 10:08:13;;;;;;;8.60;6.73;;;;;;;;;;5051278;28;20424;-75
2021/01/15 10:10:39;;;;;;;7.50;5.33;;;;;;;;;;5051466;28;20769;-77
2021/01/15 10:13:05;;;;;;;7.15;5.20;;;;;;;;;;5051633;28;20414;-77
2021/01/15 10:15:31;;;;;;;8.33;5.73;;;;;;;;;;5051530;28;20176;-78
2021/01/15 10:17:57;;;;;;;8.40;6.90;;;;;;;;;;5051459;28;20423;-77
2021/01/15 10:20:25;;;;;;;8.15;5.55;;;;;;;;;;5051436;28;20419;-76
2021/01/15 10:22:52;;;;;;;5.57;4.97;;;;;;;;;;5051423;28;20241;-79
2021/01/15 10:25:18;;;;;;;7.43;6.22;;;;;;;;;;5051466;28;20533;-77
2021/01/15 10:27:44;;;;;;;12.32;5.88;;;;;;;;;;5051336;28;20164;-78
2021/01/15 10:30:10;;;;;;;13.75;6.32;;;;;;;;;;5050550;28;20262;-78
2021/01/15 10:35:40;;;;;;;10.52;6.07;;;;;;;;;;5051243;28;20177;-78
2021/01/15 10:38:06;;;;;;;12.85;6.50;;;;;;;;;;5050667;28;20194;-77
2021/01/15 10:40:32;;;;;;;9.35;6.60;;;;;;;;;;5051158;28;20177;-79
2021/01/15 10:42:58;;;;;;;8.25;6.28;;;;;;;;;;5050966;28;20247;-77
2021/01/15 10:45:24;;;;;;;7.60;6.05;;;;;;;;;;5050915;28;20191;-77
2021/01/15 10:50:54;;;;;;;9.73;5.70;;;;;;;;;;5051003;28;20912;-75
2021/01/15 10:53:20;;;;;;;8.15;5.68;;;;;;;;;;5050939;28;20215;-76
2021/01/15 10:55:48;;;;;;;8.27;6.23;;;;;;;;;;5053086;28;20168;-75
2021/01/15 10:58:15;;;;;;;26.45;7.28;;;;;;;;;;5054081;28;20459;-78
2021/01/15 11:06:29;;;;;;;8.32;5.93;;;;;;;;;;5054973;28;20167;-77
2021/01/15 11:08:55;;;;;;;8.35;6.88;;;;;;;;;;5054558;28;20169;-76
2021/01/15 11:11:21;;;;;;;8.52;5.85;;;;;;;;;;5054731;28;20272;-77
2021/01/15 11:13:47;;;;;;;7.80;7.10;;;;;;;;;;5054322;28;20171;-76
2021/01/15 11:16:13;;;;;;;8.90;6.70;;;;;;;;;;5054528;28;20195;-76
2021/01/15 11:18:40;;;;;;;9.75;6.13;;;;;;;;;;5054510;28;20505;-76
2021/01/15 11:21:06;;;;;;;10.37;7.00;;;;;;;;;;5055404;28;20175;-75
2021/01/15 11:23:32;;;;;;;8.83;6.87;;;;;;;;;;5055377;28;20496;-76
2021/01/15 11:25:59;;;;;;;6.60;5.20;;;;;;;;;;5055441;28;20418;-76
2021/01/15 11:28:25;;;;;;;8.40;6.00;;;;;;;;;;5054455;28;20407;-77
2021/01/15 11:30:51;;;;;;;4.63;4.23;;;;;;;;;;5055024;28;20492;-76
2021/01/15 11:36:20;;;;;;;6.27;5.67;;;;;;;;;;5054976;28;20506;-76
2021/01/15 11:38:47;;;;;;;7.83;5.83;;;;;;;;;;5054948;28;20893;-76
2021/01/15 11:41:14;;;;;;;7.83;6.13;;;;;;;;;;5055333;28;20411;-77
2021/01/15 11:43:40;;;;;;;6.40;5.43;;;;;;;;;;5054972;28;20418;-76
2021/01/15 11:46:07;;;;;;;6.53;5.40;;;;;;;;;;5054844;28;20498;-76
2021/01/15 11:48:34;;;;;;;5.43;4.90;;;;;;;;;;5055001;28;20453;-77
2021/01/15 11:51:00;;;;;;;6.67;4.77;;;;;;;;;;5054874;28;20441;-77
2021/01/15 11:53:26;;;;;;;6.80;5.87;;;;;;;;;;5054436;28;20464;-77
2021/01/15 11:55:53;;;;;;;5.57;5.07;;;;;;;;;;5054708;28;20893;-75
2021/01/15 11:58:19;;;;;;;5.60;5.10;;;;;;;;;;5054083;28;20462;-76
2021/01/15 12:00:45;;;;;;;6.67;5.97;;;;;;;;;;5053574;28;20489;-77
2021/01/15 12:06:15;;;;;;;6.77;5.93;;;;;;;;;;5053480;28;20908;-77
2021/01/15 12:08:41;;;;;;;7.80;6.40;;;;;;;;;;5053773;28;20422;-76
2021/01/15 12:11:07;;;;;;;6.80;6.10;;;;;;;;;;5053679;28;20423;-77
2021/01/15 12:13:34;;;;;;;7.83;5.93;;;;;;;;;;5053413;28;20773;-76
2021/01/15 12:16:00;;;;;;;8.13;5.60;;;;;;;;;;5053371;28;20423;-78
2021/01/15 12:21:30;;;;;;;6.27;5.73;;;;;;;;;;5053293;28;20406;-76
2021/01/15 12:23:56;;;;;;;7.67;5.90;;;;;;;;;;5053000;28;20422;-77
2021/01/15 12:26:23;;;;;;;6.83;6.13;;;;;;;;;;5053381;28;20414;-77
2021/01/15 12:28:49;;;;;;;6.47;5.93;;;;;;;;;;5052641;28;20435;-77
2021/01/15 12:31:16;;;;;;;6.60;5.53;;;;;;;;;;5053164;28;20552;-77
2021/01/15 12:36:45;;;;;;;6.70;6.00;;;;;;;;;;5053171;28;20422;-78
2021/01/15 12:39:11;;;;;;;9.03;6.30;;;;;;;;;;5053093;28;20407;-78
2021/01/15 12:41:37;;;;;;;7.30;5.87;;;;;;;;;;5053187;28;20469;-78
2021/01/15 12:44:04;;;;;;;8.37;6.33;;;;;;;;;;5053006;28;20411;-77
2021/01/15 12:46:30;;;;;;;7.77;6.40;;;;;;;;;;5052948;28;20406;-78
2021/01/15 12:48:56;;;;;;;8.83;7.90;;;;;;;;;;5053096;28;20466;-77
2021/01/15 12:51:22;;;;;;;10.53;9.13;;;;;;;;;;5052598;28;20425;-76
2021/01/15 12:53:48;;;;;;;7.63;6.90;;;;;;;;;;5052583;28;20851;-76
2021/01/15 12:56:17;;;;;;;8.50;6.97;;;;;;;;;;5034715;28;20423;-76
2021/01/15 12:58:43;;;;;;;14.83;6.83;;;;;;;;;;5051581;28;20905;-76
2021/01/15 13:01:09;;;;;;;10.67;7.47;;;;;;;;;;5052362;28;20561;-79
2021/01/15 13:06:39;;;;;;;8.37;6.83;;;;;;;;;;5052278;28;20896;-78
2021/01/15 13:09:05;;;;;;;10.40;7.33;;;;;;;;;;5052175;28;20463;-77
2021/01/15 13:11:32;;;;;;;10.80;8.63;;;;;;;;;;5052417;28;20418;-77
2021/01/15 13:13:58;;;;;;;7.70;7.00;;;;;;;;;;5052438;28;20456;-77
2021/01/15 13:16:28;;;;;;;7.93;7.13;;;;;;;;;;5052178;28;20473;-77
2021/01/15 13:21:57;;;;;;;8.10;6.90;;;;;;;;;;5049811;28;20424;-77
2021/01/15 13:24:23;;;;;;;8.27;7.53;;;;;;;;;;5050578;28;20419;-77
2021/01/15 13:26:50;;;;;;;8.13;6.67;;;;;;;;;;5050953;28;20495;-76
2021/01/15 13:29:17;;;;;;;8.73;6.50;;;;;;;;;;5050938;28;21010;-76
2021/01/15 13:37:39;;;;;;;10.10;7.57;;;;;;;;;;5050576;28;20436;-76
2021/01/15 13:40:10;;;;;;;11.43;8.17;;;;;;;;;;5049779;28;20420;-76
2021/01/15 13:42:39;;;;;;;8.57;7.33;;;;;;;;;;5049107;28;20442;-76
2021/01/15 13:45:06;;;;;;;9.37;6.93;;;;;;;;;;5050088;28;20412;-77
2021/01/15 13:47:33;;;;;;;12.33;8.03;;;;;;;;;;5051082;28;20410;-77
2021/01/15 13:50:00;;;;;;;8.30;7.20;;;;;;;;;;5051629;28;20471;-76
2021/01/15 13:52:26;;;;;;;18.30;8.30;;;;;;;;;;5051260;28;20795;-75
2021/01/15 13:54:52;;;;;;;9.70;6.77;;;;;;;;;;5051270;28;20970;-77
2021/01/15 13:57:18;;;;;;;8.50;6.33;;;;;;;;;;5051237;28;20411;-77
2021/01/15 13:59:44;;;;;;;9.27;7.00;;;;;;;;;;5049919;28;20846;-77
2021/01/15 14:02:10;;;;;;;9.33;7.47;;;;;;;;;;5033296;28;20957;-78
2021/01/15 14:04:36;;;;;;;10.30;8.40;;;;;;;;;;5051374;28;20449;-77
2021/01/15 14:07:02;;;;;;;11.45;9.52;;;;;;;;;;5051661;28;20173;-78
2021/01/15 14:09:28;;;;;;;13.70;8.87;;;;;;;;;;5051408;28;20259;-77
2021/01/15 14:11:55;;;;;;;12.70;10.18;;;;;;;;;;5051647;28;20492;-76
2021/01/15 14:14:22;;;;;;;12.70;8.88;;;;;;;;;;5033561;28;20215;-77
2021/01/15 14:16:48;;;;;;;11.65;9.10;;;;;;;;;;5051695;28;20165;-79
2021/01/15 14:22:17;;;;;;;15.70;9.88;;;;;;;;;;5051590;28;20173;-77
2021/01/15 14:24:45;;;;;;;12.10;8.68;;;;;;;;;;5051215;28;20409;-77
2021/01/15 14:27:11;;;;;;;12.05;9.57;;;;;;;;;;5051417;28;20167;-77
2021/01/15 14:29:37;;;;;;;15.80;9.98;;;;;;;;;;5053728;28;20213;-77
2021/01/15 14:32:03;;;;;;;16.47;8.73;;;;;;;;;;5056565;28;20170;-76
2021/01/15 14:37:33;;;;;;;14.30;8.18;;;;;;;;;;5056658;28;20195;-77
2021/01/15 14:40:00;;;;;;;12.25;8.80;;;;;;;;;;5056536;28;20176;-77
2021/01/15 14:42:26;;;;;;;10.65;9.05;;;;;;;;;;5056336;28;20178;-77
2021/01/15 14:44:52;;;;;;;17.63;9.80;;;;;;;;;;5056342;28;20196;-76
2021/01/15 14:47:18;;;;;;;14.85;9.55;;;;;;;;;;5038591;28;20288;-77
2021/01/15 14:52:49;;;;;;;9.50;8.50;;;;;;;;;;5056412;28;20713;-75
2021/01/15 14:55:16;;;;;;;13.00;8.73;;;;;;;;;;5056327;28;20165;-77
2021/01/15 14:57:42;;;;;;;10.77;8.80;;;;;;;;;;5055989;28;20177;-76
2021/01/15 15:00:10;;;;;;;11.40;9.40;;;;;;;;;;5055453;28;20580;-77
2021/01/15 15:02:39;;;;;;;11.55;8.32;;;;;;;;;;5055732;28;20238;-76
2021/01/15 15:05:06;;;;;;;12.02;9.00;;;;;;;;;;5056379;28;20168;-77
2021/01/15 15:07:31;;;;;;;11.85;8.10;;;;;;;;;;5037811;28;20180;-77
2021/01/15 15:09:57;;;;;;;14.73;9.40;;;;;;;;;;5055796;28;20200;-77
2021/01/15 15:12:23;;;;;;;12.70;9.68;;;;;;;;;;5038023;28;20506;-77
2021/01/15 15:14:49;;;;;;;14.63;9.03;;;;;;;;;;5055864;28;20260;-76
2021/01/15 15:17:15;;;;;;;12.37;8.30;;;;;;;;;;5055873;28;20464;-77
2021/01/15 15:22:45;;;;;;;13.82;8.48;;;;;;;;;;5056132;28;20214;-77
2021/01/15 15:25:14;;;;;;;9.43;7.80;;;;;;;;;;5055702;28;20165;-77
2021/01/15 15:27:40;;;;;;;13.15;8.23;;;;;;;;;;5055601;28;20535;-77
2021/01/15 15:30:07;;;;;;;10.23;8.55;;;;;;;;;;5055233;28;20685;-77
2021/01/15 15:38:21;;;;;;;9.90;8.23;;;;;;;;;;5055468;28;20187;-76
2021/01/15 15:40:47;;;;;;;12.10;7.83;;;;;;;;;;5054724;28;20168;-75
2021/01/15 15:43:13;;;;;;;12.38;8.10;;;;;;;;;;5055163;28;20411;-76
2021/01/15 15:45:39;;;;;;;13.20;8.77;;;;;;;;;;5055368;28;20169;-75
2021/01/15 15:48:09;;;;;;;12.35;8.20;;;;;;;;;;5054651;28;20279;-76
2021/01/15 15:50:35;;;;;;;12.48;7.70;;;;;;;;;;5054951;28;20168;-79
2021/01/15 15:53:01;;;;;;;16.13;9.45;;;;;;;;;;5054653;28;20259;-77
2021/01/15 15:55:27;;;;;;;8.95;7.18;;;;;;;;;;5054714;28;20171;-77
2021/01/15 15:57:55;;;;;;;15.63;8.70;;;;;;;;;;5054903;28;20229;-77
2021/01/15 16:00:21;;;;;;;10.35;7.43;;;;;;;;;;5054059;28;20546;-76
2021/01/15 16:08:35;;;;;;;12.52;7.43;;;;;;;;;;5054388;28;20214;-76
2021/01/15 16:11:01;;;;;;;14.98;7.88;;;;;;;;;;5037677;28;20272;-78
2021/01/15 16:13:28;;;;;;;9.65;8.27;;;;;;;;;;5054394;28;20172;-77
2021/01/15 16:15:54;;;;;;;14.35;9.00;;;;;;;;;;5055444;28;20256;-77
2021/01/15 16:18:20;;;;;;;10.07;8.65;;;;;;;;;;5037356;28;20190;-76
2021/01/15 16:20:46;;;;;;;8.80;7.20;;;;;;;;;;5054428;28;20168;-74
2021/01/15 16:23:12;;;;;;;9.70;7.85;;;;;;;;;;5054251;28;20461;-76
2021/01/15 16:25:39;;;;;;;10.77;7.63;;;;;;;;;;5054321;28;20176;-77
2021/01/15 16:28:06;;;;;;;11.07;7.55;;;;;;;;;;5053779;28;20175;-76
2021/01/15 16:30:32;;;;;;;13.00;7.80;;;;;;;;;;5054369;28;20181;-75
2021/01/15 16:32:58;;;;;;;13.55;7.07;;;;;;;;;;5052111;28;20161;-76
2021/01/15 16:38:28;;;;;;;12.18;7.07;;;;;;;;;;5053201;28;20638;-76
2021/01/15 16:40:55;;;;;;;16.08;9.15;;;;;;;;;;5052587;28;20184;-76
2021/01/15 16:43:21;;;;;;;14.18;8.65;;;;;;;;;;5052772;28;20168;-76